Latest Weather Observations for Jervois

IDD60801

Issued at 8:31 pm CST Monday 20 February 2017 (issued every 30 minutes, with the page automatically refreshed every 10 minutes)

About weather observations | Map of weather stations | Latest weather observations for NT | Other Formats
Station Details ID: 015602 Name: JERVOIS Lat: -22.95 Lon: 136.14 Height: 328.0 m
Data from the previous 72 hours. | See also: Recent months at Jervois
Date/Time
CST
Temp
°C
App
Temp
°C
Dew
Point
°C
Rel
Hum
%
Delta-T
°C
Wind Press
QNH
hPa
Press
MSL
hPa
Rain since
9am
mm
Dir  Spd
km/h
Gust
km/h
Spd
kts
Gust
kts
20/08:30pm 24.2 20.0 -1.0 19 11.5 SSE 11 15 6 8 1014.0 - 0.0
20/08:00pm 24.8 21.1 -0.1 19 11.6 SSE 9 13 5 7 1013.9 - 0.0
20/07:30pm 26.1 21.8 -1.6 16 12.7 SSE 11 15 6 8 1013.6 - 0.0
20/07:00pm 27.9 22.9 -4.0 12 14.2 SE 13 19 7 10 1013.2 - 0.0
20/06:30pm 29.3 23.6 -4.0 11 15.0 SE 17 24 9 13 1012.9 - 0.0
20/06:00pm 30.1 23.8 -5.4 9 15.7 SE 19 28 10 15 1012.6 1010.1 0.0
20/05:30pm 30.8 24.9 -5.3 9 16.1 SE 17 28 9 15 1012.2 - 0.0
20/05:00pm 31.1 24.8 -5.5 9 16.3 SSE 19 30 10 16 1012.1 - 0.0
20/04:30pm 31.6 26.1 -5.0 9 16.5 SSE 15 30 8 16 1012.1 - 0.0
20/04:00pm 31.6 26.3 -3.3 10 16.2 SE 15 30 8 16 1012.0 - 0.0
20/03:30pm 31.1 25.0 -4.3 10 16.1 SSE 19 35 10 19 1012.0 - 0.0
20/03:00pm 31.4 25.2 -4.5 9 16.3 ESE 19 30 10 16 1012.2 1009.8 0.0
20/02:30pm 30.4 24.0 -5.0 10 15.8 SE 20 28 11 15 1012.7 - 0.0
20/02:00pm 30.9 24.8 -3.9 10 15.9 SE 19 28 10 15 1013.2 - 0.0
20/01:30pm 29.4 24.6 -2.7 12 14.8 SSE 13 32 7 17 1013.6 - 0.0
20/01:00pm 29.4 24.3 -2.2 12 14.7 SSE 15 24 8 13 1014.1 - 0.0
20/12:30pm 29.1 24.0 -1.7 13 14.4 SE 15 24 8 13 1014.4 - 0.0
20/12:00pm 28.3 22.9 -1.5 14 13.9 SE 17 24 9 13 1015.0 1012.6 0.0
20/11:30am 27.3 22.0 -0.9 16 13.2 SSE 17 32 9 17 1015.3 - 0.0
20/11:00am 26.9 21.2 -0.6 16 12.9 E 19 28 10 15 1015.8 - 0.0
20/10:30am 26.2 21.3 -0.6 17 12.5 SE 15 24 8 13 1016.2 - 0.0
20/10:00am 25.0 19.4 -0.1 19 11.7 SE 19 26 10 14 1016.4 - 0.0
20/09:30am 24.6 19.1 0.6 20 11.3 SE 19 28 10 15 1016.7 - 0.0
20/09:00am 22.9 17.3 0.9 23 10.3 SE 20 28 11 15 1016.7 1014.4 0.0
20/08:30am 21.7 16.4 1.8 27 9.4 SE 19 30 10 16 1016.5 - 0.0
20/08:00am 19.9 15.4 2.2 31 8.3 SE 15 24 8 13 1016.2 - 0.0
20/07:30am 17.8 13.6 1.9 34 7.3 SSE 13 20 7 11 1016.1 - 0.0
20/07:00am 15.1 12.4 2.6 43 5.7 S 6 11 3 6 1016.0 - 0.0
20/06:30am 13.2 10.5 2.7 49 4.7 S 6 9 3 5 1015.8 - 0.0
20/06:00am 13.6 10.6 2.1 45 5.1 S 7 11 4 6 1015.5 1013.1 0.0
20/05:30am 13.8 10.9 2.4 46 5.1 S 7 9 4 5 1015.4 - 0.0
20/05:00am 14.4 11.5 2.4 44 5.4 S 7 11 4 6 1015.3 - 0.0
20/04:30am 15.0 11.6 2.1 41 5.8 SSE 9 13 5 7 1014.9 - 0.0
20/04:00am 15.6 12.2 1.8 39 6.2 SSE 9 13 5 7 1014.9 - 0.0
20/03:30am 16.1 12.7 1.7 38 6.5 S 9 15 5 8 1015.0 - 0.0
20/03:00am 16.6 13.1 1.5 36 6.8 S 9 11 5 6 1014.8 1012.4 0.0
20/02:30am 17.4 13.5 1.2 33 7.3 SSE 11 15 6 8 1015.0 - 0.0
20/02:00am 18.1 14.6 1.1 32 7.7 S 9 13 5 7 1015.0 - 0.0
20/01:30am 18.8 14.9 0.9 30 8.1 S 11 17 6 9 1015.0 - 0.0
20/01:00am 19.8 15.4 0.3 27 8.8 S 13 20 7 11 1015.0 - 0.0
20/12:30am 20.3 15.5 0.5 26 9.0 S 15 20 8 11 1014.8 - 0.0
20/12:00am 20.7 16.4 0.9 26 9.1 S 13 22 7 12 1015.1 1012.7 0.0
 
Date/Time
CST
Temp
°C
App
Temp
°C
Dew
Point
°C
Rel
Hum
%
Delta-T
°C
Wind Press
QNH
hPa
Press
MSL
hPa
Rain since
9am
mm
Dir  Spd
km/h
Gust
km/h
Spd
kts
Gust
kts
19/11:30pm 20.8 16.2 1.5 27 9.0 S 15 20 8 11 1015.2 - 0.0
19/11:00pm 19.4 16.3 3.6 35 7.6 S 9 13 5 7 1015.3 - 0.0
19/10:30pm 19.7 17.1 4.1 35 7.6 S 7 9 4 5 1015.4 - 0.0
19/10:00pm 21.0 17.9 3.5 31 8.5 S 9 11 5 6 1015.2 - 0.0
19/09:30pm 21.9 18.6 2.5 28 9.3 SSE 9 13 5 7 1015.1 - 0.0
19/09:00pm 22.3 19.2 3.5 29 9.2 S 9 13 5 7 1014.9 1012.5 0.0
19/08:30pm 23.5 20.2 2.4 25 10.2 SSE 9 11 5 6 1014.5 - 0.0
19/08:00pm 25.0 21.1 1.1 21 11.4 SSE 11 15 6 8 1014.1 - 0.0
19/07:30pm 26.0 21.6 0.6 19 12.1 SSE 13 19 7 10 1013.6 - 0.0
19/07:00pm 27.2 22.0 -0.2 16 13.0 SSE 17 28 9 15 1013.3 - 0.0
19/06:30pm 28.4 22.7 -0.7 15 13.8 SSE 19 30 10 16 1012.9 - 0.0
19/06:00pm 29.1 23.2 -0.7 14 14.2 SSE 20 33 11 18 1012.7 1010.2 0.0
19/05:30pm 29.6 23.3 -0.7 14 14.5 SSE 22 32 12 17 1012.4 - 0.0
19/05:00pm 30.0 24.1 -0.6 14 14.7 SSE 20 30 11 16 1012.3 - 0.0
19/04:30pm 29.9 23.8 0.4 15 14.4 SE 22 37 12 20 1012.4 - 0.0
19/04:00pm 30.3 24.2 0.6 15 14.6 S 22 37 12 20 1012.4 - 0.0
19/03:30pm 29.7 23.7 0.8 15 14.2 SSE 22 33 12 18 1012.4 - 0.0
19/03:00pm 29.9 23.5 1.2 16 14.2 SSE 24 41 13 22 1012.6 1010.3 0.0
19/02:30pm 30.1 24.1 0.9 15 14.4 S 22 39 12 21 1012.7 - 0.0
19/02:00pm 29.1 22.3 1.0 16 13.8 SSE 26 39 14 21 1013.1 - 0.0
19/01:30pm 28.9 22.4 0.1 15 13.9 SSE 24 43 13 23 1013.6 - 0.0
19/01:00pm 28.3 21.5 1.1 17 13.3 S 26 39 14 21 1014.2 - 0.0
19/12:30pm 28.5 22.6 1.5 17 13.3 SSE 22 33 12 18 1014.8 - 0.0
19/12:00pm 28.2 21.9 1.6 18 13.1 SSE 24 39 13 21 1015.6 1013.1 0.0
19/11:30am 27.5 20.9 2.3 19 12.5 SSE 26 41 14 22 1015.9 - 0.0
19/11:05am 26.6 19.6 1.9 20 12.1 SSE 28 46 15 25 1016.1 - 0.0
19/11:00am 26.6 20.0 1.9 20 12.1 SSE 26 46 14 25 1016.2 - 0.0
19/10:30am 26.6 20.5 2.6 21 11.9 SSE 24 41 13 22 1016.7 - 0.0
19/10:00am 24.8 18.2 1.8 22 11.1 SE 26 39 14 21 1017.0 - 0.0
19/09:33am 23.9 16.8 1.4 23 10.7 SE 28 46 15 25 1016.9 - 0.0
19/09:30am 24.2 17.5 1.7 23 10.8 SE 26 37 14 20 1017.0 - 0.0
19/09:00am 23.4 15.9 1.5 23 10.4 SE 30 41 16 22 1016.8 1014.5 0.0
19/08:30am 23.0 16.0 1.8 24 10.1 SE 28 39 15 21 1016.9 - 0.0
19/08:00am 22.2 16.3 2.0 26 9.6 SE 22 35 12 19 1016.6 - 0.0
19/07:30am 20.9 16.2 3.0 30 8.6 SSE 17 26 9 14 1016.7 - 0.0
19/07:00am 19.5 16.2 4.3 36 7.4 SSE 11 15 6 8 1016.4 - 0.0
19/06:30am 18.3 14.9 4.2 39 6.8 S 11 15 6 8 1015.9 - 0.0
19/06:00am 18.3 14.9 4.2 39 6.8 SSE 11 17 6 9 1015.5 1013.1 0.0
19/05:30am 19.1 14.9 3.7 36 7.4 SSE 15 22 8 12 1015.2 - 0.0
19/05:00am 19.3 15.1 4.0 36 7.4 SSE 15 24 8 13 1015.0 - 0.0
19/04:30am 19.7 16.0 4.6 37 7.4 SSE 13 19 7 10 1014.5 - 0.0
19/04:00am 20.0 16.4 4.8 36 7.5 SSE 13 20 7 11 1014.4 - 0.0
19/03:30am 19.9 16.9 5.8 39 7.1 S 11 17 6 9 1014.1 - 0.0
19/03:00am 20.0 18.0 7.0 43 6.7 S 7 11 4 6 1014.2 1011.9 0.0
19/02:30am 20.6 18.7 7.4 42 6.9 SSE 7 11 4 6 1014.1 - 0.0
19/02:00am 21.7 19.2 6.4 37 7.9 SSE 9 13 5 7 1014.2 - 0.0
19/01:30am 23.0 19.6 5.9 33 8.8 SE 13 17 7 9 1014.1 - 0.0
19/01:00am 23.6 19.8 6.0 32 9.1 SSE 15 22 8 12 1014.2 - 0.0
19/12:30am 24.1 20.3 6.0 31 9.4 SSE 15 20 8 11 1014.5 - 0.0
19/12:00am 25.5 21.2 5.1 27 10.5 SSE 17 24 9 13 1014.8 1012.4 0.0
 
Date/Time
CST
Temp
°C
App
Temp
°C
Dew
Point
°C
Rel
Hum
%
Delta-T
°C
Wind Press
QNH
hPa
Press
MSL
hPa
Rain since
9am
mm
Dir  Spd
km/h
Gust
km/h
Spd
kts
Gust
kts
18/11:30pm 25.3 21.8 5.4 27 10.3 S 13 20 7 11 1015.0 - 0.0
18/11:00pm 25.7 22.3 6.1 28 10.3 S 13 17 7 9 1015.0 - 0.0
18/10:30pm 26.0 22.7 6.3 28 10.4 S 13 19 7 10 1014.9 - 0.0
18/10:00pm 26.1 23.2 6.7 29 10.3 S 11 17 6 9 1014.6 - 0.0
18/09:30pm 26.6 23.8 7.0 28 10.5 S 11 15 6 8 1014.3 - 0.0
18/09:00pm 27.6 24.7 6.7 26 11.2 S 11 15 6 8 1013.9 1011.6 0.0
18/08:30pm 28.6 25.2 5.8 23 12.1 S 13 20 7 11 1013.5 - 0.0
18/08:00pm 29.1 25.8 6.2 23 12.3 S 13 17 7 9 1012.9 - 0.0
18/07:30pm 29.9 26.5 5.8 22 12.9 S 13 17 7 9 1012.4 - 0.0
18/07:00pm 31.0 26.7 5.1 19 13.8 S 17 28 9 15 1011.9 - 0.0
18/06:30pm 32.1 27.2 5.0 18 14.5 SSE 20 32 11 17 1011.4 - 0.0
18/06:00pm 32.7 27.7 4.5 17 15.0 SSE 20 33 11 18 1011.1 1008.8 0.0
18/05:30pm 33.6 28.7 5.1 17 15.4 SSE 20 32 11 17 1011.0 - 0.0
18/05:00pm 34.1 29.3 4.8 16 15.8 S 19 30 10 16 1010.8 - 0.0
18/04:30pm 34.5 29.5 4.6 15 16.1 SSE 20 32 11 17 1010.7 - 0.0
18/04:00pm 34.9 29.9 4.8 15 16.3 SSE 20 33 11 18 1010.6 - 0.0
18/03:30pm 34.9 30.1 4.4 15 16.4 S 19 32 10 17 1011.0 - 0.0
18/03:00pm 34.7 29.7 4.7 15 16.2 SE 20 30 11 16 1011.6 1009.2 0.0
18/02:30pm 34.4 29.6 4.4 15 16.1 SSE 19 33 10 18 1012.0 - 0.0
18/02:00pm 33.8 28.8 4.4 16 15.7 S 20 30 11 16 1012.5 - 0.0
18/01:30pm 33.3 27.9 4.4 16 15.4 S 22 37 12 20 1013.1 - 0.0
18/01:00pm 33.3 28.3 4.4 16 15.4 SSE 20 35 11 19 1013.6 - 0.0
18/12:30pm 32.3 26.4 4.0 17 14.9 SSE 24 35 13 19 1014.2 - 0.0
18/12:00pm 32.5 27.6 4.0 16 15.0 SE 19 33 10 18 1014.6 1012.3 0.0
18/11:30am 31.3 25.3 3.2 17 14.5 SSE 24 39 13 21 1015.0 - 0.0
18/11:00am 30.9 25.2 3.1 17 14.3 SSE 22 32 12 17 1015.4 - 0.0
18/10:30am 30.3 24.7 3.6 18 13.8 SSE 22 32 12 17 1015.7 - 0.0
18/10:00am 29.6 24.0 3.5 19 13.4 SSE 22 33 12 18 1016.0 - 0.0
18/09:30am 28.8 23.2 3.2 19 13.0 SE 22 35 12 19 1016.0 - 0.0
18/09:00am 28.1 22.1 3.2 20 12.6 SE 24 35 13 19 1016.0 1013.6 0.0
18/08:30am 27.6 22.1 3.9 22 12.1 SSE 22 32 12 17 1015.8 - 0.0
18/08:00am 26.3 20.7 3.7 23 11.4 SSE 22 30 12 16 1015.6 - 0.0
18/07:30am 25.1 21.1 4.7 26 10.4 S 15 26 8 14 1015.3 - 0.0
18/07:00am 23.5 20.6 6.4 33 8.9 S 11 19 6 10 1015.0 - 0.0
18/06:30am 22.7 19.8 6.5 35 8.4 S 11 15 6 8 1014.3 - 0.0
18/06:00am 23.8 21.3 6.6 33 9.0 S 9 13 5 7 1013.9 1011.6 0.0
18/05:30am 25.0 21.1 5.5 28 10.1 S 15 22 8 12 1013.2 - 0.0
18/05:00am 24.8 21.1 6.3 30 9.7 S 15 22 8 12 1012.7 - 0.0
18/04:30am 24.4 21.6 6.8 32 9.3 S 11 15 6 8 1012.5 - 0.0
18/04:00am 25.0 22.0 5.8 29 10.0 S 11 13 6 7 1012.1 - 0.0
18/03:30am 25.0 22.8 6.1 29 9.9 S 7 9 4 5 1011.8 - 0.0
18/03:00am 25.9 23.3 6.2 28 10.4 SSE 9 11 5 6 1011.6 1009.2 0.0
18/02:30am 26.7 24.0 5.5 25 11.1 SSE 9 13 5 7 1011.4 - 0.0
18/02:00am 27.7 24.4 4.5 22 12.0 SE 11 15 6 8 1011.3 - 0.0
18/01:30am 28.2 24.9 4.5 22 12.3 ESE 11 15 6 8 1011.4 - 0.0
18/01:00am 29.6 26.0 2.9 18 13.6 SE 11 19 6 10 1011.7 - 0.0
18/12:30am 29.7 25.7 2.7 17 13.7 E 13 17 7 9 1011.9 - 0.0
18/12:00am 30.7 26.0 1.1 15 14.7 E 15 24 8 13 1011.9 1009.5 0.0
 
Date/Time
CST
Temp
°C
App
Temp
°C
Dew
Point
°C
Rel
Hum
%
Delta-T
°C
Wind Press
QNH
hPa
Press
MSL
hPa
Rain since
9am
mm
Dir  Spd
km/h
Gust
km/h
Spd
kts
Gust
kts
17/11:30pm 30.2 25.9 0.8 15 14.5 E 13 15 7 8 1011.9 - 0.0
17/11:00pm 31.4 26.8 -0.9 12 15.6 E 13 17 7 9 1011.9 - 0.0
17/10:30pm 30.0 24.0 -2.9 11 15.2 NE 19 24 10 13 1011.8 - 0.0
17/10:00pm 31.1 26.1 -4.3 10 16.1 S 13 19 7 10 1010.5 - 0.0
17/09:30pm 30.4 26.5 0.9 15 14.6 S 11 15 6 8 1010.2 - 0.0
17/09:00pm 32.1 28.1 0.5 13 15.7 SSE 11 17 6 9 1010.1 1007.7 0.0

Other Formats:

Comma delimited format used in spreadsheet applications
http://www.bom.gov.au/fwo/IDD60801/IDD60801.94327.axf

JavaScript Object Notation format (JSON) in row-major order
http://www.bom.gov.au/fwo/IDD60801/IDD60801.94327.json